sensor_id;sensor_type;location;lat;lon;timestamp;pressure;altitude;pressure_sealevel;temperature;humidity
13011;BME280;6786;57.632;11.962;2022-08-19T00:01:27;100563.88;;;23.29;79.74
13011;BME280;6786;57.632;11.962;2022-08-19T00:04:05;100560.03;;;23.32;79.77
13011;BME280;6786;57.632;11.962;2022-08-19T00:06:35;100569.63;;;23.34;79.73
13011;BME280;6786;57.632;11.962;2022-08-19T00:09:07;100564.22;;;23.34;79.63
13011;BME280;6786;57.632;11.962;2022-08-19T00:11:38;100569.63;;;23.34;79.90
13011;BME280;6786;57.632;11.962;2022-08-19T00:14:07;100569.63;;;23.34;79.68
13011;BME280;6786;57.632;11.962;2022-08-19T00:16:37;100568.78;;;23.34;79.63
13011;BME280;6786;57.632;11.962;2022-08-19T00:19:05;100553.41;;;23.18;79.54
13011;BME280;6786;57.632;11.962;2022-08-19T00:21:34;100520.66;;;23.05;79.64
13011;BME280;6786;57.632;11.962;2022-08-19T00:24:07;100562.56;;;23.33;79.66
13011;BME280;6786;57.632;11.962;2022-08-19T00:26:36;100531.50;;;23.21;79.81
13011;BME280;6786;57.632;11.962;2022-08-19T00:29:08;100548.06;;;23.34;79.89
13011;BME280;6786;57.632;11.962;2022-08-19T00:31:38;100548.88;;;23.35;79.51
13011;BME280;6786;57.632;11.962;2022-08-19T00:34:08;100551.78;;;23.33;79.41
13011;BME280;6786;57.632;11.962;2022-08-19T00:36:37;100555.44;;;23.32;79.71
13011;BME280;6786;57.632;11.962;2022-08-19T00:39:07;100561.19;;;23.29;79.79
13011;BME280;6786;57.632;11.962;2022-08-19T00:41:35;100562.88;;;23.30;79.91
13011;BME280;6786;57.632;11.962;2022-08-19T00:44:06;100559.34;;;23.30;79.71
13011;BME280;6786;57.632;11.962;2022-08-19T00:46:37;100564.91;;;23.28;79.86
13011;BME280;6786;57.632;11.962;2022-08-19T00:49:10;100550.66;;;23.10;79.96
13011;BME280;6786;57.632;11.962;2022-08-19T00:51:43;100572.28;;;23.26;79.89
13011;BME280;6786;57.632;11.962;2022-08-19T00:54:13;100577.34;;;23.29;79.76
13011;BME280;6786;57.632;11.962;2022-08-19T00:56:43;100574.00;;;23.27;79.60
13011;BME280;6786;57.632;11.962;2022-08-19T00:59:13;100554.06;;;23.12;79.65
13011;BME280;6786;57.632;11.962;2022-08-19T01:02:03;100579.72;;;23.24;79.87
13011;BME280;6786;57.632;11.962;2022-08-19T01:04:32;100562.63;;;23.15;79.93
13011;BME280;6786;57.632;11.962;2022-08-19T01:07:01;100576.31;;;23.22;79.99
13011;BME280;6786;57.632;11.962;2022-08-19T01:09:31;100527.38;;;22.93;80.01
13011;BME280;6786;57.632;11.962;2022-08-19T01:11:59;100570.91;;;23.22;79.83
13011;BME280;6786;57.632;11.962;2022-08-19T01:14:28;100571.94;;;23.21;79.92
13011;BME280;6786;57.632;11.962;2022-08-19T01:16:57;100580.03;;;23.21;80.08
13011;BME280;6786;57.632;11.962;2022-08-19T01:19:29;100578.31;;;23.20;79.52
13011;BME280;6786;57.632;11.962;2022-08-19T01:22:14;100518.97;;;22.88;79.71
13011;BME280;6786;57.632;11.962;2022-08-19T01:24:53;100572.94;;;23.20;79.82
13011;BME280;6786;57.632;11.962;2022-08-19T01:27:22;100563.69;;;23.23;79.52
13011;BME280;6786;57.632;11.962;2022-08-19T01:29:50;100553.41;;;23.18;79.84
13011;BME280;6786;57.632;11.962;2022-08-19T01:32:18;100553.41;;;23.18;79.55
13011;BME280;6786;57.632;11.962;2022-08-19T01:34:59;100551.34;;;23.20;79.84
13011;BME280;6786;57.632;11.962;2022-08-19T01:37:29;100548.00;;;23.18;79.74
13011;BME280;6786;57.632;11.962;2022-08-19T01:39:59;100555.06;;;23.19;79.51
13011;BME280;6786;57.632;11.962;2022-08-19T01:42:33;100548.00;;;23.18;79.36
13011;BME280;6786;57.632;11.962;2022-08-19T01:45:02;100560.47;;;23.19;79.38
13011;BME280;6786;57.632;11.962;2022-08-19T01:47:30;100536.84;;;23.05;79.70
13011;BME280;6786;57.632;11.962;2022-08-19T01:49:58;100557.06;;;23.17;79.36
13011;BME280;6786;57.632;11.962;2022-08-19T01:52:26;100542.56;;;23.02;79.55
13011;BME280;6786;57.632;11.962;2022-08-19T01:54:54;100560.63;;;23.17;79.64
13011;BME280;6786;57.632;11.962;2022-08-19T01:57:23;100557.06;;;23.17;79.40
13011;BME280;6786;57.632;11.962;2022-08-19T01:59:52;100559.78;;;23.17;79.36
13011;BME280;6786;57.632;11.962;2022-08-19T02:02:20;100545.47;;;23.16;79.65
13011;BME280;6786;57.632;11.962;2022-08-19T02:04:48;100529.09;;;22.94;79.43
13011;BME280;6786;57.632;11.962;2022-08-19T02:07:18;100561.13;;;23.13;79.70
13011;BME280;6786;57.632;11.962;2022-08-19T02:09:47;100549.66;;;23.11;79.56
13011;BME280;6786;57.632;11.962;2022-08-19T02:12:15;100564.50;;;23.15;79.41
13011;BME280;6786;57.632;11.962;2022-08-19T02:14:44;100548.97;;;23.01;79.57
13011;BME280;6786;57.632;11.962;2022-08-19T02:17:12;100524.34;;;22.88;79.67
13011;BME280;6786;57.632;11.962;2022-08-19T02:19:40;100542.56;;;23.02;79.74
13011;BME280;6786;57.632;11.962;2022-08-19T02:22:08;100560.09;;;23.14;79.59
13011;BME280;6786;57.632;11.962;2022-08-19T02:24:36;100561.13;;;23.13;79.40
13011;BME280;6786;57.632;11.962;2022-08-19T02:27:05;100557.41;;;23.14;79.30
13011;BME280;6786;57.632;11.962;2022-08-19T02:29:33;100555.72;;;23.13;79.36
13011;BME280;6786;57.632;11.962;2022-08-19T02:32:02;100555.72;;;23.13;79.42
13011;BME280;6786;57.632;11.962;2022-08-19T02:34:30;100551.19;;;23.13;79.29
13011;BME280;6786;57.632;11.962;2022-08-19T02:36:59;100541.22;;;23.14;79.24
13011;BME280;6786;57.632;11.962;2022-08-19T02:39:29;100550.34;;;23.13;79.33
13011;BME280;6786;57.632;11.962;2022-08-19T02:41:56;100546.97;;;23.11;79.37
13011;BME280;6786;57.632;11.962;2022-08-19T02:44:26;100561.13;;;23.13;79.61
13011;BME280;6786;57.632;11.962;2022-08-19T02:46:57;100554.88;;;23.12;79.57
13011;BME280;6786;57.632;11.962;2022-08-19T02:49:27;100550.66;;;23.10;79.39
13011;BME280;6786;57.632;11.962;2022-08-19T02:52:00;100564.00;;;23.11;79.30
13011;BME280;6786;57.632;11.962;2022-08-19T02:54:28;100547.28;;;23.08;79.51
13011;BME280;6786;57.632;11.962;2022-08-19T02:56:56;100561.13;;;23.13;79.66
13011;BME280;6786;57.632;11.962;2022-08-19T02:59:24;100558.44;;;23.13;79.56
13011;BME280;6786;57.632;11.962;2022-08-19T03:01:52;100549.50;;;23.12;79.35
13011;BME280;6786;57.632;11.962;2022-08-19T03:04:20;100554.06;;;23.12;79.31
13011;BME280;6786;57.632;11.962;2022-08-19T03:06:51;100554.06;;;23.12;79.44
13011;BME280;6786;57.632;11.962;2022-08-19T03:09:19;100555.03;;;23.11;79.49
13011;BME280;6786;57.632;11.962;2022-08-19T03:11:47;100558.75;;;23.10;79.38
13011;BME280;6786;57.632;11.962;2022-08-19T03:14:18;100558.06;;;23.08;79.46
13011;BME280;6786;57.632;11.962;2022-08-19T03:16:48;100557.09;;;23.09;79.34
13011;BME280;6786;57.632;11.962;2022-08-19T03:19:17;100553.38;;;23.10;79.46
13011;BME280;6786;57.632;11.962;2022-08-19T03:21:46;100548.13;;;23.08;79.21
13011;BME280;6786;57.632;11.962;2022-08-19T03:24:16;100558.06;;;23.08;79.48
13011;BME280;6786;57.632;11.962;2022-08-19T03:26:46;100533.47;;;23.03;79.48
13011;BME280;6786;57.632;11.962;2022-08-19T03:29:15;100496.06;;;22.84;79.25
13011;BME280;6786;57.632;11.962;2022-08-19T03:31:56;100532.81;;;23.09;79.20
13011;BME280;6786;57.632;11.962;2022-08-19T03:34:28;100533.81;;;23.08;79.51
13011;BME280;6786;57.632;11.962;2022-08-19T03:36:58;100545.59;;;23.07;79.53
13011;BME280;6786;57.632;11.962;2022-08-19T03:39:28;100483.41;;;22.76;79.38
13011;BME280;6786;57.632;11.962;2022-08-19T03:41:56;100536.50;;;23.08;79.35
13011;BME280;6786;57.632;11.962;2022-08-19T03:44:46;100533.16;;;23.06;79.61
13011;BME280;6786;57.632;11.962;2022-08-19T03:47:14;100512.91;;;22.94;79.31
13011;BME280;6786;57.632;11.962;2022-08-19T03:49:44;100533.16;;;23.06;79.53
13011;BME280;6786;57.632;11.962;2022-08-19T03:52:13;100503.13;;;22.85;79.65
13011;BME280;6786;57.632;11.962;2022-08-19T03:54:43;100543.09;;;23.05;79.52
13011;BME280;6786;57.632;11.962;2022-08-19T03:57:11;100542.91;;;23.07;79.50
13011;BME280;6786;57.632;11.962;2022-08-19T03:59:39;100496.72;;;22.78;79.29
13011;BME280;6786;57.632;11.962;2022-08-19T04:02:09;100551.00;;;23.07;79.14
13011;BME280;6786;57.632;11.962;2022-08-19T04:04:41;100552.69;;;23.08;79.52
13011;BME280;6786;57.632;11.962;2022-08-19T04:07:11;100546.63;;;23.06;79.06
13011;BME280;6786;57.632;11.962;2022-08-19T04:09:43;100547.28;;;23.08;79.34
13011;BME280;6786;57.632;11.962;2022-08-19T04:12:11;100547.28;;;23.08;79.07
13011;BME280;6786;57.632;11.962;2022-08-19T04:14:39;100546.47;;;23.07;79.06
13011;BME280;6786;57.632;11.962;2022-08-19T04:17:08;100547.28;;;23.08;79.37
13011;BME280;6786;57.632;11.962;2022-08-19T04:19:36;100549.00;;;23.09;79.05
13011;BME280;6786;57.632;11.962;2022-08-19T04:22:05;100552.84;;;23.06;79.22
13011;BME280;6786;57.632;11.962;2022-08-19T04:24:36;100554.03;;;23.04;79.18
13011;BME280;6786;57.632;11.962;2022-08-19T04:27:06;100569.19;;;23.05;78.95
13011;BME280;6786;57.632;11.962;2022-08-19T04:29:34;100560.09;;;23.06;79.22
13011;BME280;6786;57.632;11.962;2022-08-19T04:32:06;100500.56;;;22.67;79.08
13011;BME280;6786;57.632;11.962;2022-08-19T04:34:36;100560.44;;;23.03;79.58
13011;BME280;6786;57.632;11.962;2022-08-19T04:37:25;100561.44;;;23.02;79.20
13011;BME280;6786;57.632;11.962;2022-08-19T04:40:02;100552.50;;;23.01;79.39
13011;BME280;6786;57.632;11.962;2022-08-19T04:42:50;100553.34;;;23.02;79.44
13011;BME280;6786;57.632;11.962;2022-08-19T04:45:18;100479.13;;;22.58;79.18
13011;BME280;6786;57.632;11.962;2022-08-19T04:47:48;100557.06;;;23.01;79.52
13011;BME280;6786;57.632;11.962;2022-08-19T04:50:40;100523.66;;;22.78;79.43
13011;BME280;6786;57.632;11.962;2022-08-19T04:53:09;100519.09;;;22.78;79.30
13011;BME280;6786;57.632;11.962;2022-08-19T04:55:41;100565.31;;;22.99;79.59
13011;BME280;6786;57.632;11.962;2022-08-19T04:58:10;100559.06;;;22.99;79.37
13011;BME280;6786;57.632;11.962;2022-08-19T05:00:39;100562.44;;;23.01;79.67
13011;BME280;6786;57.632;11.962;2022-08-19T05:03:07;100562.44;;;23.01;79.35
13011;BME280;6786;57.632;11.962;2022-08-19T05:05:38;100567.50;;;23.04;79.27
13011;BME280;6786;57.632;11.962;2022-08-19T05:08:11;100563.31;;;23.01;79.28
13011;BME280;6786;57.632;11.962;2022-08-19T05:10:40;100567.50;;;23.04;79.48
13011;BME280;6786;57.632;11.962;2022-08-19T05:13:08;100562.13;;;23.04;79.46
13011;BME280;6786;57.632;11.962;2022-08-19T05:15:38;100570.91;;;23.06;79.09
13011;BME280;6786;57.632;11.962;2022-08-19T05:18:06;100573.75;;;23.04;79.16
13011;BME280;6786;57.632;11.962;2022-08-19T05:21:06;100541.69;;;22.85;79.09
13011;BME280;6786;57.632;11.962;2022-08-19T05:23:51;100571.22;;;23.03;79.11
13011;BME280;6786;57.632;11.962;2022-08-19T05:26:19;100526.03;;;22.81;79.25
13011;BME280;6786;57.632;11.962;2022-08-19T05:28:47;100524.81;;;22.75;79.27
13011;BME280;6786;57.632;11.962;2022-08-19T05:31:21;100572.03;;;23.03;79.40
13011;BME280;6786;57.632;11.962;2022-08-19T05:33:49;100560.44;;;23.03;79.21
13011;BME280;6786;57.632;11.962;2022-08-19T05:36:17;100529.69;;;22.80;79.19
13011;BME280;6786;57.632;11.962;2022-08-19T05:38:46;100570.22;;;23.12;79.44
13011;BME280;6786;57.632;11.962;2022-08-19T05:41:16;100557.09;;;23.09;79.57
13011;BME280;6786;57.632;11.962;2022-08-19T05:43:45;100569.56;;;23.18;79.35
13011;BME280;6786;57.632;11.962;2022-08-19T05:46:17;100554.72;;;23.06;79.35
13011;BME280;6786;57.632;11.962;2022-08-19T05:48:55;100571.25;;;23.19;79.40
13011;BME280;6786;57.632;11.962;2022-08-19T05:51:24;100578.31;;;23.20;79.53
13011;BME280;6786;57.632;11.962;2022-08-19T05:53:54;100573.94;;;23.19;79.52
13011;BME280;6786;57.632;11.962;2022-08-19T05:56:22;100522.31;;;22.90;79.51
13011;BME280;6786;57.632;11.962;2022-08-19T05:58:50;100575.63;;;23.20;79.54
13011;BME280;6786;57.632;11.962;2022-08-19T06:01:20;100561.13;;;23.13;79.34
13011;BME280;6786;57.632;11.962;2022-08-19T06:03:48;100504.09;;;22.76;79.28
13011;BME280;6786;57.632;11.962;2022-08-19T06:06:18;100585.41;;;23.21;79.46
13011;BME280;6786;57.632;11.962;2022-08-19T06:08:46;100578.88;;;23.24;79.37
13011;BME280;6786;57.632;11.962;2022-08-19T06:11:20;100529.09;;;22.94;79.50
13011;BME280;6786;57.632;11.962;2022-08-19T06:13:50;100588.47;;;23.26;79.44
13011;BME280;6786;57.632;11.962;2022-08-19T06:16:25;100578.00;;;23.23;79.19
13011;BME280;6786;57.632;11.962;2022-08-19T06:18:55;100586.81;;;23.25;79.00
13011;BME280;6786;57.632;11.962;2022-08-19T06:21:27;100577.03;;;23.24;79.27
13011;BME280;6786;57.632;11.962;2022-08-19T06:23:56;100564.50;;;23.23;78.76
13011;BME280;6786;57.632;11.962;2022-08-19T06:26:25;100559.84;;;23.25;78.84
13011;BME280;6786;57.632;11.962;2022-08-19T06:28:53;100565.22;;;23.25;79.14
13011;BME280;6786;57.632;11.962;2022-08-19T06:31:23;100565.22;;;23.25;79.09
13011;BME280;6786;57.632;11.962;2022-08-19T06:33:51;100524.38;;;23.04;78.98
13011;BME280;6786;57.632;11.962;2022-08-19T06:36:21;100563.69;;;23.23;78.96
13011;BME280;6786;57.632;11.962;2022-08-19T06:38:52;100565.53;;;23.22;79.11
13011;BME280;6786;57.632;11.962;2022-08-19T06:41:20;100569.25;;;23.21;79.57
13011;BME280;6786;57.632;11.962;2022-08-19T06:43:48;100563.84;;;23.21;79.54
13011;BME280;6786;57.632;11.962;2022-08-19T06:46:30;100551.19;;;23.13;79.27
13011;BME280;6786;57.632;11.962;2022-08-19T06:49:01;100525.03;;;22.98;79.24
13011;BME280;6786;57.632;11.962;2022-08-19T06:51:31;100523.34;;;22.97;79.07
13011;BME280;6786;57.632;11.962;2022-08-19T06:54:01;100569.78;;;23.25;78.95
13011;BME280;6786;57.632;11.962;2022-08-19T06:56:30;100530.44;;;22.98;78.99
13011;BME280;6786;57.632;11.962;2022-08-19T06:59:02;100566.25;;;23.24;79.24
13011;BME280;6786;57.632;11.962;2022-08-19T07:01:35;100539.88;;;23.10;79.06
13011;BME280;6786;57.632;11.962;2022-08-19T07:04:05;100576.69;;;23.27;78.99
13011;BME280;6786;57.632;11.962;2022-08-19T07:06:37;100575.69;;;23.28;79.08
13011;BME280;6786;57.632;11.962;2022-08-19T07:09:15;100552.03;;;23.14;78.87
13011;BME280;6786;57.632;11.962;2022-08-19T07:11:48;100560.09;;;23.14;79.04
13011;BME280;6786;57.632;11.962;2022-08-19T07:14:18;100581.06;;;23.28;78.96
13011;BME280;6786;57.632;11.962;2022-08-19T07:16:49;100506.84;;;22.84;78.71
13011;BME280;6786;57.632;11.962;2022-08-19T07:19:22;100586.47;;;23.28;78.74
13011;BME280;6786;57.632;11.962;2022-08-19T07:21:51;100597.25;;;23.28;78.52
13011;BME280;6786;57.632;11.962;2022-08-19T07:24:22;100560.09;;;23.14;78.69
13011;BME280;6786;57.632;11.962;2022-08-19T07:26:53;100589.16;;;23.28;79.08
13011;BME280;6786;57.632;11.962;2022-08-19T07:29:23;100571.94;;;23.21;79.11
13011;BME280;6786;57.632;11.962;2022-08-19T07:31:54;100597.25;;;23.28;79.00
13011;BME280;6786;57.632;11.962;2022-08-19T07:34:28;100598.13;;;23.29;78.85
13011;BME280;6786;57.632;11.962;2022-08-19T07:36:57;100549.97;;;23.00;79.04
13011;BME280;6786;57.632;11.962;2022-08-19T07:39:32;100602.66;;;23.28;78.65
13011;BME280;6786;57.632;11.962;2022-08-19T07:42:03;100591.47;;;23.15;78.77
13011;BME280;6786;57.632;11.962;2022-08-19T07:44:36;100617.00;;;23.29;78.81
13011;BME280;6786;57.632;11.962;2022-08-19T07:47:06;100614.28;;;23.29;78.93
13011;BME280;6786;57.632;11.962;2022-08-19T07:49:54;100584.69;;;23.11;78.82
13011;BME280;6786;57.632;11.962;2022-08-19T07:52:22;100617.81;;;23.29;78.77
13011;BME280;6786;57.632;11.962;2022-08-19T07:54:52;100608.22;;;23.27;78.67
13011;BME280;6786;57.632;11.962;2022-08-19T07:57:24;100609.72;;;23.29;78.82
13011;BME280;6786;57.632;11.962;2022-08-19T07:59:52;100569.50;;;23.02;78.82
13011;BME280;6786;57.632;11.962;2022-08-19T08:02:21;100613.44;;;23.28;78.69
13011;BME280;6786;57.632;11.962;2022-08-19T08:04:49;100576.44;;;23.04;78.75
13011;BME280;6786;57.632;11.962;2022-08-19T08:07:35;100624.22;;;23.28;78.96
13011;BME280;6786;57.632;11.962;2022-08-19T08:10:22;100588.75;;;23.07;78.90
13011;BME280;6786;57.632;11.962;2022-08-19T08:12:52;100622.56;;;23.27;78.95
13011;BME280;6786;57.632;11.962;2022-08-19T08:15:35;100620.84;;;23.26;78.76
13011;BME280;6786;57.632;11.962;2022-08-19T08:18:09;100618.31;;;23.25;78.75
13011;BME280;6786;57.632;11.962;2022-08-19T08:20:40;100620.84;;;23.26;78.89
13011;BME280;6786;57.632;11.962;2022-08-19T08:23:08;100629.63;;;23.28;78.90
13011;BME280;6786;57.632;11.962;2022-08-19T08:25:55;100628.59;;;23.29;78.96
13011;BME280;6786;57.632;11.962;2022-08-19T08:28:25;100620.84;;;23.26;78.71
13011;BME280;6786;57.632;11.962;2022-08-19T08:30:56;100617.16;;;23.27;79.00
13011;BME280;6786;57.632;11.962;2022-08-19T08:33:27;100624.22;;;23.28;78.85
13011;BME280;6786;57.632;11.962;2022-08-19T08:36:01;100621.53;;;23.28;79.07
13011;BME280;6786;57.632;11.962;2022-08-19T08:38:30;100610.06;;;23.26;78.86
13011;BME280;6786;57.632;11.962;2022-08-19T08:41:15;100608.91;;;23.29;78.72
13011;BME280;6786;57.632;11.962;2022-08-19T08:43:51;100618.84;;;23.28;78.67
13011;BME280;6786;57.632;11.962;2022-08-19T08:46:24;100618.84;;;23.28;78.93
13011;BME280;6786;57.632;11.962;2022-08-19T08:49:02;100608.38;;;23.25;79.02
13011;BME280;6786;57.632;11.962;2022-08-19T08:51:38;100623.03;;;23.31;78.77
13011;BME280;6786;57.632;11.962;2022-08-19T08:54:17;100608.66;;;23.22;78.70
13011;BME280;6786;57.632;11.962;2022-08-19T08:56:49;100627.63;;;23.30;78.52
13011;BME280;6786;57.632;11.962;2022-08-19T08:59:21;100638.41;;;23.30;78.92
13011;BME280;6786;57.632;11.962;2022-08-19T09:01:49;100638.06;;;23.33;78.82
13011;BME280;6786;57.632;11.962;2022-08-19T09:04:18;100643.47;;;23.33;78.83
13011;BME280;6786;57.632;11.962;2022-08-19T09:06:51;100643.47;;;23.33;78.88
13011;BME280;6786;57.632;11.962;2022-08-19T09:09:27;100623.84;;;23.15;78.86
13011;BME280;6786;57.632;11.962;2022-08-19T09:12:06;100661.31;;;23.34;78.85
13011;BME280;6786;57.632;11.962;2022-08-19T09:14:45;100651.56;;;23.33;78.68
13011;BME280;6786;57.632;11.962;2022-08-19T09:17:19;100649.69;;;23.34;78.68
13011;BME280;6786;57.632;11.962;2022-08-19T09:19:59;100644.28;;;23.34;78.84
13011;BME280;6786;57.632;11.962;2022-08-19T09:22:49;100608.31;;;23.09;78.61
13011;BME280;6786;57.632;11.962;2022-08-19T09:25:21;100654.25;;;23.33;78.91
13011;BME280;6786;57.632;11.962;2022-08-19T09:27:56;100651.56;;;23.33;78.62
13011;BME280;6786;57.632;11.962;2022-08-19T09:30:41;100652.53;;;23.32;78.78
13011;BME280;6786;57.632;11.962;2022-08-19T09:33:11;100644.47;;;23.32;78.57
13011;BME280;6786;57.632;11.962;2022-08-19T09:35:39;100649.84;;;23.32;78.73
13011;BME280;6786;57.632;11.962;2022-08-19T09:38:15;100652.38;;;23.34;78.92
13011;BME280;6786;57.632;11.962;2022-08-19T09:40:44;100663.00;;;23.35;78.77
13011;BME280;6786;57.632;11.962;2022-08-19T09:43:14;100655.94;;;23.34;78.55
13011;BME280;6786;57.632;11.962;2022-08-19T09:46:03;100648.88;;;23.33;78.70
13011;BME280;6786;57.632;11.962;2022-08-19T09:48:33;100650.53;;;23.34;78.63
13011;BME280;6786;57.632;11.962;2022-08-19T09:51:03;100650.53;;;23.34;78.76
13011;BME280;6786;57.632;11.962;2022-08-19T09:53:38;100650.53;;;23.34;78.38
13011;BME280;6786;57.632;11.962;2022-08-19T09:56:07;100661.31;;;23.34;78.65
13011;BME280;6786;57.632;11.962;2022-08-19T09:58:40;100655.94;;;23.34;78.47
13011;BME280;6786;57.632;11.962;2022-08-19T10:01:08;100630.56;;;23.19;78.59
13011;BME280;6786;57.632;11.962;2022-08-19T10:03:42;100612.31;;;23.05;78.67
13011;BME280;6786;57.632;11.962;2022-08-19T10:06:15;100653.22;;;23.34;78.79
13011;BME280;6786;57.632;11.962;2022-08-19T10:09:04;100634.94;;;23.20;78.62
13011;BME280;6786;57.632;11.962;2022-08-19T10:11:34;100655.94;;;23.34;78.79
13011;BME280;6786;57.632;11.962;2022-08-19T10:14:08;100661.97;;;23.36;78.47
13011;BME280;6786;57.632;11.962;2022-08-19T10:16:38;100645.81;;;23.36;78.63
13011;BME280;6786;57.632;11.962;2022-08-19T10:19:08;100652.22;;;23.35;78.45
13011;BME280;6786;57.632;11.962;2022-08-19T10:21:36;100648.50;;;23.36;78.52
13011;BME280;6786;57.632;11.962;2022-08-19T10:24:08;100650.88;;;23.31;78.56
13011;BME280;6786;57.632;11.962;2022-08-19T10:26:44;100654.75;;;23.37;78.61
13011;BME280;6786;57.632;11.962;2022-08-19T10:29:23;100657.59;;;23.35;78.82
13011;BME280;6786;57.632;11.962;2022-08-19T10:31:58;100627.19;;;23.17;78.88
13011;BME280;6786;57.632;11.962;2022-08-19T10:34:29;100652.22;;;23.35;78.61
13011;BME280;6786;57.632;11.962;2022-08-19T10:36:58;100653.22;;;23.34;78.45
13011;BME280;6786;57.632;11.962;2022-08-19T10:39:29;100643.47;;;23.33;78.69
13011;BME280;6786;57.632;11.962;2022-08-19T10:42:09;100639.75;;;23.34;78.45
13011;BME280;6786;57.632;11.962;2022-08-19T10:44:41;100645.16;;;23.34;78.59
13011;BME280;6786;57.632;11.962;2022-08-19T10:47:10;100638.41;;;23.30;78.74
13011;BME280;6786;57.632;11.962;2022-08-19T10:49:48;100642.94;;;23.30;78.56
13011;BME280;6786;57.632;11.962;2022-08-19T10:52:37;100640.09;;;23.31;78.87
13011;BME280;6786;57.632;11.962;2022-08-19T10:55:14;100641.75;;;23.32;78.93
13011;BME280;6786;57.632;11.962;2022-08-19T10:58:00;100593.13;;;23.00;78.77
13011;BME280;6786;57.632;11.962;2022-08-19T11:00:30;100640.41;;;23.28;78.92
13011;BME280;6786;57.632;11.962;2022-08-19T11:02:58;100649.53;;;23.27;78.95
13011;BME280;6786;57.632;11.962;2022-08-19T11:05:27;100622.44;;;23.11;79.30
13011;BME280;6786;57.632;11.962;2022-08-19T11:08:05;100647.81;;;23.26;79.17
13011;BME280;6786;57.632;11.962;2022-08-19T11:10:49;100646.13;;;23.25;78.84
13011;BME280;6786;57.632;11.962;2022-08-19T11:13:16;100636.19;;;23.26;78.94
13011;BME280;6786;57.632;11.962;2022-08-19T11:15:46;100615.38;;;23.10;79.22
13011;BME280;6786;57.632;11.962;2022-08-19T11:18:14;100623.84;;;23.23;79.00
13011;BME280;6786;57.632;11.962;2022-08-19T11:20:47;100617.25;;;23.17;79.25
13011;BME280;6786;57.632;11.962;2022-08-19T11:23:15;100618.13;;;23.26;78.85
13011;BME280;6786;57.632;11.962;2022-08-19T11:25:43;100616.31;;;23.27;79.11
13011;BME280;6786;57.632;11.962;2022-08-19T11:28:12;100620.50;;;23.29;78.92
13011;BME280;6786;57.632;11.962;2022-08-19T11:30:42;100618.50;;;23.31;79.18
13011;BME280;6786;57.632;11.962;2022-08-19T11:33:12;100620.50;;;23.29;79.08
13011;BME280;6786;57.632;11.962;2022-08-19T11:35:41;100549.25;;;22.90;78.88
13011;BME280;6786;57.632;11.962;2022-08-19T11:38:12;100611.09;;;23.33;79.21
13011;BME280;6786;57.632;11.962;2022-08-19T11:40:42;100611.09;;;23.33;78.92
13011;BME280;6786;57.632;11.962;2022-08-19T11:43:10;100617.31;;;23.34;79.29
13011;BME280;6786;57.632;11.962;2022-08-19T11:45:38;100584.53;;;23.12;79.11
13011;BME280;6786;57.632;11.962;2022-08-19T11:48:06;100586.91;;;23.15;79.05
13011;BME280;6786;57.632;11.962;2022-08-19T11:50:35;100613.78;;;23.25;79.32
13011;BME280;6786;57.632;11.962;2022-08-19T11:53:08;100615.75;;;23.23;79.46
13011;BME280;6786;57.632;11.962;2022-08-19T11:55:37;100606.69;;;23.24;79.55
13011;BME280;6786;57.632;11.962;2022-08-19T11:58:10;100605.28;;;23.20;79.31
13011;BME280;6786;57.632;11.962;2022-08-19T12:00:44;100620.47;;;23.21;79.62
13011;BME280;6786;57.632;11.962;2022-08-19T12:03:15;100616.94;;;23.20;79.52
13011;BME280;6786;57.632;11.962;2022-08-19T12:05:45;100617.78;;;23.21;79.70
13011;BME280;6786;57.632;11.962;2022-08-19T12:08:13;100618.59;;;23.21;79.28
13011;BME280;6786;57.632;11.962;2022-08-19T12:10:41;100612.38;;;23.21;79.48
13011;BME280;6786;57.632;11.962;2022-08-19T12:13:13;100608.66;;;23.22;79.60
13011;BME280;6786;57.632;11.962;2022-08-19T12:15:42;100609.53;;;23.23;79.92
13011;BME280;6786;57.632;11.962;2022-08-19T12:18:12;100576.94;;;23.00;79.91
13011;BME280;6786;57.632;11.962;2022-08-19T12:20:41;100614.06;;;23.22;80.13
13011;BME280;6786;57.632;11.962;2022-08-19T12:23:11;100610.69;;;23.20;79.76
13011;BME280;6786;57.632;11.962;2022-08-19T12:25:44;100603.28;;;23.22;79.95
13011;BME280;6786;57.632;11.962;2022-08-19T12:28:14;100607.31;;;23.18;80.19
13011;BME280;6786;57.632;11.962;2022-08-19T12:30:42;100569.34;;;22.95;80.31
13011;BME280;6786;57.632;11.962;2022-08-19T12:33:10;100599.88;;;23.20;80.16
13011;BME280;6786;57.632;11.962;2022-08-19T12:35:40;100576.63;;;23.03;80.29
13011;BME280;6786;57.632;11.962;2022-08-19T12:38:13;100598.22;;;23.19;80.10
13011;BME280;6786;57.632;11.962;2022-08-19T12:40:41;100597.19;;;23.20;80.40
13011;BME280;6786;57.632;11.962;2022-08-19T12:43:12;100599.88;;;23.20;80.36
13011;BME280;6786;57.632;11.962;2022-08-19T12:45:42;100594.50;;;23.20;80.65
13011;BME280;6786;57.632;11.962;2022-08-19T12:48:13;100528.72;;;22.81;80.25
13011;BME280;6786;57.632;11.962;2022-08-19T12:51:00;100601.94;;;23.18;80.53
13011;BME280;6786;57.632;11.962;2022-08-19T12:53:34;100599.06;;;23.19;80.65
13011;BME280;6786;57.632;11.962;2022-08-19T12:56:05;100588.94;;;23.13;80.46
13011;BME280;6786;57.632;11.962;2022-08-19T12:58:38;100591.16;;;23.18;80.29
13011;BME280;6786;57.632;11.962;2022-08-19T13:01:07;100586.56;;;23.18;80.61
13011;BME280;6786;57.632;11.962;2022-08-19T13:03:37;100585.75;;;23.18;80.56
13011;BME280;6786;57.632;11.962;2022-08-19T13:06:06;100580.34;;;23.18;80.57
13011;BME280;6786;57.632;11.962;2022-08-19T13:08:36;100559.41;;;23.04;80.90
13011;BME280;6786;57.632;11.962;2022-08-19T13:11:10;100569.56;;;23.18;80.70
13011;BME280;6786;57.632;11.962;2022-08-19T13:13:40;100553.69;;;23.07;80.80